createdAt,value
2022-10-08T00:01:18.753Z,0.17
2022-10-08T00:06:14.819Z,0.20
2022-10-08T00:11:09.108Z,0.20
2022-10-08T00:16:00.774Z,0.22
2022-10-08T00:20:52.592Z,0.30
2022-10-08T00:25:45.473Z,0.20
2022-10-08T00:30:39.848Z,0.20
2022-10-08T00:35:37.229Z,0.20
2022-10-08T00:40:28.808Z,0.10
2022-10-08T00:45:20.801Z,0.20
2022-10-08T00:50:33.401Z,0.30
2022-10-08T00:55:29.542Z,0.20
2022-10-08T01:00:24.835Z,0.20
2022-10-08T01:05:19.882Z,0.20
2022-10-08T01:10:23.628Z,0.20
2022-10-08T01:15:27.745Z,0.20
2022-10-08T01:20:36.404Z,0.20
2022-10-08T01:25:34.016Z,0.15
2022-10-08T01:30:25.711Z,0.10
2022-10-08T01:35:25.742Z,0.13
2022-10-08T01:40:22.629Z,0.10
2022-10-08T01:45:19.267Z,0.20
2022-10-08T01:50:30.814Z,0.32
2022-10-08T01:55:31.868Z,0.20
2022-10-08T02:00:23.508Z,0.10
2022-10-08T02:05:15.242Z,0.68
2022-10-08T02:10:19.602Z,0.20
2022-10-08T02:15:23.798Z,0.20
2022-10-08T02:20:20.636Z,0.20
2022-10-08T02:25:44.628Z,0.65
2022-10-08T02:30:55.490Z,0.20
2022-10-08T02:35:52.123Z,0.20
2022-10-08T02:40:48.581Z,0.30
2022-10-08T02:45:46.657Z,0.22
2022-10-08T02:55:44.807Z,0.20
2022-10-08T03:00:59.484Z,0.30
2022-10-08T03:05:52.687Z,0.28
2022-10-08T03:10:45.012Z,0.30
2022-10-08T03:15:37.527Z,0.25
2022-10-08T03:20:30.978Z,0.28
2022-10-08T03:25:22.642Z,0.25
2022-10-08T03:30:14.357Z,0.77
2022-10-08T03:35:06.060Z,0.55
2022-10-08T03:39:57.607Z,0.50
2022-10-08T03:44:49.289Z,0.30
2022-10-08T03:49:41.282Z,0.68
2022-10-08T03:54:35.929Z,0.30
2022-10-08T03:59:27.606Z,0.30
2022-10-08T04:04:23.125Z,0.28
2022-10-08T04:09:17.165Z,0.30
2022-10-08T04:14:08.937Z,0.40
2022-10-08T04:19:00.644Z,0.20
2022-10-08T04:23:52.261Z,0.60
2022-10-08T04:28:45.336Z,0.30
2022-10-08T04:33:37.941Z,0.22
2022-10-08T04:38:29.617Z,0.45
2022-10-08T04:43:22.257Z,0.38
2022-10-08T04:48:14.005Z,0.20
2022-10-08T04:53:06.729Z,0.20
2022-10-08T04:57:58.462Z,0.40
2022-10-08T05:02:50.639Z,0.30
2022-10-08T05:07:42.788Z,0.30
2022-10-08T05:12:34.531Z,0.50
2022-10-08T05:17:26.602Z,0.30
2022-10-08T05:22:18.506Z,0.30
2022-10-08T05:27:10.206Z,0.40
2022-10-08T05:32:02.352Z,0.95
2022-10-08T05:36:54.155Z,0.40
2022-10-08T05:41:45.774Z,0.32
2022-10-08T05:46:38.498Z,0.85
2022-10-08T05:51:30.430Z,0.30
2022-10-08T05:56:23.561Z,0.25
2022-10-08T06:01:31.348Z,0.25
2022-10-08T06:06:24.346Z,0.30
2022-10-08T06:11:16.462Z,0.30
2022-10-08T06:16:10.610Z,0.85
2022-10-08T06:21:13.366Z,0.30
2022-10-08T06:26:07.193Z,0.30
2022-10-08T06:30:59.605Z,0.30
2022-10-08T06:35:51.287Z,0.38
2022-10-08T06:40:43.093Z,0.30
2022-10-08T06:45:39.388Z,0.40
2022-10-08T06:50:31.197Z,0.30
2022-10-08T06:55:22.836Z,0.30
2022-10-08T07:00:14.621Z,0.70
2022-10-08T07:05:06.766Z,0.50
2022-10-08T07:09:58.419Z,0.35
2022-10-08T07:14:50.057Z,0.30
2022-10-08T07:19:41.874Z,0.30
2022-10-08T07:24:33.539Z,0.43
2022-10-08T07:29:26.368Z,0.40
2022-10-08T07:34:18.077Z,0.30
2022-10-08T07:39:14.961Z,0.47
2022-10-08T07:44:07.339Z,0.30
2022-10-08T07:49:01.593Z,0.60
2022-10-08T07:53:53.520Z,0.38
2022-10-08T07:58:47.320Z,0.30
2022-10-08T08:03:38.925Z,0.50
2022-10-08T08:08:30.569Z,0.60
2022-10-08T08:13:22.181Z,0.82
2022-10-08T08:18:13.912Z,0.47
2022-10-08T08:23:05.593Z,0.50
2022-10-08T08:27:57.375Z,0.60
2022-10-08T08:32:49.534Z,0.60
2022-10-08T08:37:41.512Z,0.50
2022-10-08T08:42:39.716Z,0.80
2022-10-08T08:47:41.419Z,0.50
2022-10-08T08:52:40.540Z,0.90
2022-10-08T08:57:52.365Z,0.43
2022-10-08T09:03:00.738Z,0.75
2022-10-08T09:08:06.173Z,0.75
2022-10-08T09:12:58.110Z,0.70
2022-10-08T09:17:52.325Z,0.55
2022-10-08T09:22:45.687Z,0.55
2022-10-08T09:27:58.156Z,0.73
2022-10-08T09:32:54.785Z,0.50
2022-10-08T09:37:48.514Z,0.50
2022-10-08T09:42:40.576Z,0.55
2022-10-08T09:47:32.366Z,0.65
2022-10-08T09:52:27.183Z,0.80
2022-10-08T09:57:21.720Z,0.65
2022-10-08T10:02:29.953Z,0.60
2022-10-08T10:07:22.814Z,0.68
2022-10-08T10:12:29.718Z,0.40
2022-10-08T10:17:35.659Z,0.60
2022-10-08T10:22:41.117Z,0.65
2022-10-08T10:27:42.522Z,0.52
2022-10-08T10:32:40.159Z,0.60
2022-10-08T10:37:37.680Z,0.60
2022-10-08T10:42:38.309Z,0.50
2022-10-08T10:47:32.377Z,0.60
2022-10-08T10:52:36.127Z,0.50
2022-10-08T10:58:10.930Z,0.52
2022-10-08T11:03:23.924Z,0.60
2022-10-08T11:08:39.017Z,0.40
2022-10-08T11:13:36.106Z,0.52
2022-10-08T11:18:45.895Z,0.55
2022-10-08T11:24:05.370Z,0.70
2022-10-08T11:29:15.975Z,0.60
2022-10-08T11:34:22.598Z,0.40
2022-10-08T11:39:38.225Z,0.50
2022-10-08T11:44:30.340Z,0.50
2022-10-08T11:49:22.946Z,0.60
2022-10-08T11:54:32.216Z,0.50
2022-10-08T11:59:56.902Z,0.40
2022-10-08T12:04:50.509Z,0.50
2022-10-08T12:10:07.342Z,0.40
2022-10-08T12:14:58.987Z,0.60
2022-10-08T12:20:19.993Z,0.40
2022-10-08T12:25:33.369Z,0.38
2022-10-08T12:30:57.063Z,0.40
2022-10-08T12:36:01.035Z,0.40
2022-10-08T12:41:11.234Z,0.50
2022-10-08T12:46:44.983Z,0.38
2022-10-08T12:52:04.612Z,0.43
2022-10-08T12:56:56.645Z,0.40
2022-10-08T13:01:51.621Z,0.35
2022-10-08T13:06:43.416Z,0.40
2022-10-08T13:11:35.331Z,0.30
2022-10-08T13:16:27.144Z,0.40
2022-10-08T13:21:57.609Z,0.40
2022-10-08T13:26:52.296Z,0.35
2022-10-08T13:31:51.020Z,0.30
2022-10-08T13:36:52.813Z,0.35
2022-10-08T13:41:52.486Z,0.30
2022-10-08T13:46:44.281Z,0.40
2022-10-08T13:51:36.077Z,0.50
2022-10-08T13:56:27.710Z,0.30
2022-10-08T14:01:21.279Z,0.40
2022-10-08T14:06:12.973Z,0.30
2022-10-08T14:11:04.654Z,0.22
2022-10-08T14:15:56.420Z,0.30
2022-10-08T14:20:51.053Z,0.30
2022-10-08T14:25:42.789Z,0.28
2022-10-08T14:30:34.494Z,0.30
2022-10-08T14:35:26.143Z,0.30
2022-10-08T14:40:21.169Z,0.30
2022-10-08T14:45:13.220Z,0.35
2022-10-08T14:50:05.572Z,0.30
2022-10-08T14:54:57.449Z,0.50
2022-10-08T14:59:49.250Z,0.25
2022-10-08T15:04:40.977Z,0.50
2022-10-08T15:09:32.783Z,0.30
2022-10-08T15:14:24.564Z,0.30
2022-10-08T15:19:21.059Z,0.30
2022-10-08T15:24:15.137Z,0.40
2022-10-08T15:29:06.943Z,0.30
2022-10-08T15:34:01.954Z,0.38
2022-10-08T15:39:07.826Z,0.60
2022-10-08T15:44:19.944Z,0.43
2022-10-08T15:49:11.947Z,0.50
2022-10-08T15:54:04.608Z,1.65
2022-10-08T15:58:58.708Z,3.38
2022-10-08T16:03:53.031Z,0.93
2022-10-08T16:08:45.306Z,0.60
2022-10-08T16:13:37.071Z,0.40
2022-10-08T16:18:28.790Z,0.50
2022-10-08T16:23:20.463Z,2.03
2022-10-08T16:28:12.204Z,1.38
2022-10-08T16:33:04.081Z,2.70
2022-10-08T16:37:55.954Z,2.60
2022-10-08T16:42:47.836Z,3.65
2022-10-08T16:47:39.774Z,1.70
2022-10-08T16:52:31.765Z,0.77
2022-10-08T16:57:24.919Z,0.80
2022-10-08T17:02:16.753Z,1.77
2022-10-08T17:07:08.575Z,1.92
2022-10-08T17:12:00.258Z,1.45
2022-10-08T17:16:52.048Z,0.80
2022-10-08T17:21:43.971Z,0.50
2022-10-08T17:26:35.754Z,0.50
2022-10-08T17:31:29.410Z,0.88
2022-10-08T17:36:26.707Z,1.02
2022-10-08T17:41:35.960Z,0.40
2022-10-08T17:46:33.646Z,0.52
2022-10-08T17:51:28.476Z,0.35
2022-10-08T17:56:21.431Z,0.50
2022-10-08T18:01:19.376Z,0.55
2022-10-08T18:11:08.095Z,0.50
2022-10-08T18:16:11.196Z,0.43
2022-10-08T18:21:04.185Z,0.57
2022-10-08T18:26:05.953Z,0.70
2022-10-08T18:31:03.511Z,0.95
2022-10-08T18:35:55.255Z,2.05
2022-10-08T18:40:46.848Z,1.17
2022-10-08T18:45:39.171Z,0.80
2022-10-08T18:50:30.796Z,0.98
2022-10-08T18:55:22.413Z,0.70
2022-10-08T19:00:14.351Z,0.90
2022-10-08T19:05:06.721Z,0.70
2022-10-08T19:09:58.451Z,0.77
2022-10-08T19:14:50.079Z,1.00
2022-10-08T19:19:41.657Z,1.00
2022-10-08T19:24:35.491Z,0.80
2022-10-08T19:29:31.906Z,1.33
2022-10-08T19:34:26.626Z,0.60
2022-10-08T19:39:22.059Z,0.80
2022-10-08T19:44:14.585Z,0.60
2022-10-08T19:49:07.234Z,0.47
2022-10-08T19:54:01.099Z,0.57
2022-10-08T19:58:53.869Z,0.50
2022-10-08T20:03:45.843Z,0.60
2022-10-08T20:08:37.549Z,0.60
2022-10-08T20:13:29.175Z,0.80
2022-10-08T20:18:20.852Z,0.60
2022-10-08T20:23:12.713Z,0.40
2022-10-08T20:28:04.423Z,0.57
2022-10-08T20:32:56.061Z,0.55
2022-10-08T20:37:47.755Z,0.70
2022-10-08T20:42:39.503Z,0.80
2022-10-08T20:47:31.111Z,0.45
2022-10-08T20:52:22.717Z,0.50
2022-10-08T20:57:14.497Z,0.60
2022-10-08T21:02:06.681Z,0.47
2022-10-08T21:06:58.582Z,0.40
2022-10-08T21:11:50.474Z,0.30
2022-10-08T21:16:42.342Z,0.32
2022-10-08T21:21:34.962Z,0.30
2022-10-08T21:26:32.940Z,0.40
2022-10-08T21:31:26.011Z,0.55
2022-10-08T21:36:26.095Z,0.30
2022-10-08T21:41:19.411Z,0.50
2022-10-08T21:46:13.267Z,0.50
2022-10-08T21:51:09.757Z,0.50
2022-10-08T21:56:10.616Z,0.85
2022-10-08T22:01:02.325Z,0.40
2022-10-08T22:05:57.785Z,0.40
2022-10-08T22:10:49.893Z,0.38
2022-10-08T22:15:58.628Z,0.40
2022-10-08T22:20:51.018Z,0.47
2022-10-08T22:25:43.344Z,0.43
2022-10-08T22:30:36.570Z,0.70
2022-10-08T22:35:28.253Z,0.50
2022-10-08T22:40:20.586Z,0.60
2022-10-08T22:45:12.204Z,0.40
2022-10-08T22:50:04.278Z,0.60
2022-10-08T22:54:55.973Z,0.50
2022-10-08T22:59:47.697Z,0.40
2022-10-08T23:04:39.389Z,0.55
2022-10-08T23:09:31.040Z,0.40
2022-10-08T23:14:22.656Z,0.40
2022-10-08T23:19:15.550Z,0.50
2022-10-08T23:24:08.397Z,0.50
2022-10-08T23:29:01.512Z,0.40
2022-10-08T23:33:54.641Z,0.50
2022-10-08T23:38:46.722Z,0.73
2022-10-08T23:43:41.105Z,0.55
2022-10-08T23:48:33.348Z,0.50
2022-10-08T23:53:25.219Z,0.50
2022-10-08T23:58:20.318Z,0.50
